createdAt,value
2019-01-24T00:00:09.708Z,34.50
2019-01-24T00:05:19.652Z,32.47
2019-01-24T00:10:25.320Z,39.83
2019-01-24T00:15:32.429Z,42.30
2019-01-24T00:20:38.073Z,41.33
2019-01-24T00:25:43.709Z,39.63
2019-01-24T00:30:49.355Z,34.90
2019-01-24T00:35:54.963Z,35.60
2019-01-24T00:41:01.135Z,37.37
2019-01-24T00:46:07.993Z,40.57
2019-01-24T00:51:13.612Z,36.30
2019-01-24T00:56:19.406Z,38.47
2019-01-24T01:01:25.065Z,37.67
2019-01-24T01:06:30.727Z,37.43
2019-01-24T01:11:36.637Z,38.80
2019-01-24T01:16:42.284Z,36.57
2019-01-24T01:21:47.929Z,39.27
2019-01-24T01:26:53.545Z,35.37
2019-01-24T01:31:59.188Z,32.57
2019-01-24T01:37:05.207Z,36.60
2019-01-24T01:42:11.602Z,35.43
2019-01-24T01:47:17.842Z,38.40
2019-01-24T01:52:23.467Z,35.17
2019-01-24T01:57:29.150Z,34.20
2019-01-24T02:02:34.983Z,30.47
2019-01-24T02:07:40.678Z,32.80
2019-01-24T02:12:47.195Z,33.40
2019-01-24T02:17:53.563Z,32.93
2019-01-24T02:22:59.158Z,32.23
2019-01-24T02:28:07.057Z,32.60
2019-01-24T02:33:14.634Z,31.33
2019-01-24T02:38:20.201Z,31.80
2019-01-24T02:43:26.364Z,31.23
2019-01-24T02:48:31.979Z,31.07
2019-01-24T02:53:37.556Z,29.33
2019-01-24T02:58:43.173Z,35.07
2019-01-24T03:03:48.845Z,32.90
2019-01-24T03:08:54.479Z,34.87
2019-01-24T03:14:01.085Z,34.77
2019-01-24T03:19:06.799Z,31.87
2019-01-24T03:24:15.523Z,32.30
2019-01-24T03:29:21.129Z,33.27
2019-01-24T03:34:27.228Z,33.93
2019-01-24T03:39:33.290Z,33.23
2019-01-24T03:44:38.992Z,31.70
2019-01-24T03:49:44.612Z,32.73
2019-01-24T03:54:50.220Z,31.37
2019-01-24T03:59:56.215Z,30.80
2019-01-24T04:05:03.465Z,32.63
2019-01-24T04:10:11.594Z,32.20
2019-01-24T04:15:22.965Z,33.80
2019-01-24T04:20:28.624Z,31.30
2019-01-24T04:25:34.291Z,32.20
2019-01-24T04:30:39.920Z,31.23
2019-01-24T04:35:45.567Z,33.87
2019-01-24T04:40:51.337Z,33.90
2019-01-24T04:45:59.643Z,34.07
2019-01-24T04:51:06.414Z,32.00
2019-01-24T04:56:12.050Z,33.53
2019-01-24T05:01:17.672Z,32.93
2019-01-24T05:06:23.319Z,33.97
2019-01-24T05:11:29.007Z,31.70
2019-01-24T05:16:34.632Z,31.60
2019-01-24T05:21:39.723Z,34.97
2019-01-24T05:26:45.308Z,37.27
2019-01-24T05:31:50.947Z,35.87
2019-01-24T05:36:56.559Z,34.87
2019-01-24T05:42:02.196Z,37.53
2019-01-24T05:47:10.687Z,34.20
2019-01-24T05:52:19.767Z,34.03
2019-01-24T05:57:23.693Z,33.97
2019-01-24T06:02:29.383Z,34.17
2019-01-24T06:12:39.573Z,32.00
2019-01-24T06:17:45.178Z,31.40
2019-01-24T06:22:50.925Z,37.20
2019-01-24T06:27:57.008Z,35.73
2019-01-24T06:33:04.619Z,36.17
2019-01-24T06:38:10.709Z,34.50
2019-01-24T06:43:17.299Z,33.73
2019-01-24T06:48:26.299Z,34.07
2019-01-24T06:53:31.881Z,34.20
2019-01-24T06:58:37.485Z,40.20
2019-01-24T07:03:44.112Z,38.10
2019-01-24T07:08:49.703Z,38.47
2019-01-24T07:13:56.086Z,33.03
2019-01-24T07:19:01.938Z,34.57
2019-01-24T07:24:07.626Z,37.97
2019-01-24T07:29:13.212Z,35.43
2019-01-24T07:34:18.822Z,37.57
2019-01-24T07:39:24.609Z,35.23
2019-01-24T07:44:31.287Z,34.07
2019-01-24T07:49:36.863Z,33.67
2019-01-24T07:54:44.396Z,39.10
2019-01-24T07:59:50.028Z,34.40
2019-01-24T08:04:55.644Z,35.07
2019-01-24T08:10:01.255Z,34.00
2019-01-24T08:15:08.587Z,34.67
2019-01-24T08:20:18.985Z,38.70
2019-01-24T08:25:24.701Z,33.40
2019-01-24T08:30:33.115Z,29.67
2019-01-24T08:35:39.397Z,29.67
2019-01-24T08:40:45.742Z,30.73
2019-01-24T08:45:52.046Z,29.57
2019-01-24T08:50:57.696Z,29.27
2019-01-24T08:56:04.515Z,32.00
2019-01-24T09:01:10.210Z,32.10
2019-01-24T09:06:22.397Z,30.23
2019-01-24T09:11:23.558Z,29.03
2019-01-24T09:16:29.707Z,29.57
2019-01-24T09:21:35.316Z,23.60
2019-01-24T09:26:40.965Z,23.73
2019-01-24T09:31:46.583Z,22.67
2019-01-24T09:36:52.735Z,21.07
2019-01-24T09:41:58.428Z,20.77
2019-01-24T09:47:04.554Z,21.23
2019-01-24T09:52:10.159Z,22.73
2019-01-24T09:57:15.749Z,19.40
2019-01-24T10:02:21.349Z,19.43
2019-01-24T10:07:27.006Z,19.10
2019-01-24T10:12:32.604Z,19.90
2019-01-24T10:17:38.475Z,20.90
2019-01-24T10:22:44.227Z,20.47
2019-01-24T10:27:49.947Z,18.00
2019-01-24T10:32:56.208Z,16.80
2019-01-24T10:38:02.020Z,17.50
2019-01-24T10:43:09.844Z,16.03
2019-01-24T10:48:16.220Z,16.50
2019-01-24T10:53:21.848Z,16.57
2019-01-24T10:58:29.487Z,15.67
2019-01-24T11:03:35.148Z,18.73
2019-01-24T11:08:41.207Z,18.47
2019-01-24T11:13:47.326Z,16.87
2019-01-24T11:18:54.261Z,16.07
2019-01-24T11:24:00.234Z,17.50
2019-01-24T11:29:06.567Z,17.90
2019-01-24T11:34:12.509Z,16.43
2019-01-24T11:39:19.663Z,15.40
2019-01-24T11:44:25.443Z,16.47
2019-01-24T11:49:31.526Z,17.70
2019-01-24T11:54:37.816Z,18.03
2019-01-24T11:59:43.419Z,17.57
2019-01-24T12:04:49.151Z,17.37
2019-01-24T12:09:54.755Z,19.20
2019-01-24T12:15:00.967Z,17.10
2019-01-24T12:20:10.173Z,17.13
2019-01-24T12:25:16.014Z,16.43
2019-01-24T12:30:32.681Z,19.50
2019-01-24T12:35:38.337Z,17.57
2019-01-24T12:40:43.940Z,16.53
2019-01-24T12:45:51.593Z,18.43
2019-01-24T12:50:57.388Z,16.27
2019-01-24T12:56:04.140Z,16.63
2019-01-24T13:01:09.699Z,13.67
2019-01-24T13:06:15.613Z,17.10
2019-01-24T13:11:21.234Z,14.73
2019-01-24T13:16:27.125Z,18.07
2019-01-24T13:21:32.777Z,13.73
2019-01-24T13:26:38.418Z,16.07
2019-01-24T13:31:44.022Z,15.77
2019-01-24T13:36:49.646Z,16.83
2019-01-24T13:41:55.891Z,16.17
2019-01-24T13:47:01.802Z,17.80
2019-01-24T13:52:08.578Z,17.80
2019-01-24T13:57:15.877Z,15.30
2019-01-24T14:02:22.653Z,15.70
2019-01-24T14:07:32.945Z,19.30
2019-01-24T14:12:35.567Z,19.00
2019-01-24T14:17:41.346Z,16.20
2019-01-24T14:22:47.101Z,16.50
2019-01-24T14:27:52.768Z,18.70
2019-01-24T14:32:58.935Z,17.30
2019-01-24T14:38:08.151Z,17.70
2019-01-24T14:43:16.368Z,15.87
2019-01-24T14:48:22.705Z,17.13
2019-01-24T14:53:30.397Z,15.77
2019-01-24T14:58:36.030Z,13.87
2019-01-24T15:03:42.043Z,18.30
2019-01-24T15:08:47.897Z,14.90
2019-01-24T15:13:54.707Z,23.20
2019-01-24T15:19:01.187Z,26.40
2019-01-24T15:24:09.966Z,18.17
2019-01-24T15:29:15.671Z,20.47
2019-01-24T15:34:21.128Z,16.70
2019-01-24T15:39:26.859Z,16.37
2019-01-24T15:44:32.538Z,18.53
2019-01-24T15:49:38.309Z,17.13
2019-01-24T15:54:46.044Z,16.33
2019-01-24T15:59:51.676Z,19.00
2019-01-24T16:04:57.409Z,18.23
2019-01-24T16:10:03.579Z,18.70
2019-01-24T16:15:12.475Z,16.80
2019-01-24T16:20:21.960Z,26.57
2019-01-24T16:25:32.524Z,19.87
2019-01-24T16:30:38.787Z,16.70
2019-01-24T16:35:44.541Z,17.03
2019-01-24T16:40:50.335Z,19.33
2019-01-24T16:45:57.483Z,17.33
2019-01-24T16:51:05.728Z,20.57
2019-01-24T16:56:15.464Z,18.73
2019-01-24T17:01:23.474Z,17.67
2019-01-24T17:06:30.280Z,18.07
2019-01-24T17:11:35.981Z,18.10
2019-01-24T17:16:41.615Z,17.13
2019-01-24T17:21:47.366Z,15.30
2019-01-24T17:26:53.157Z,16.60
2019-01-24T17:31:59.308Z,21.13
2019-01-24T17:37:05.526Z,20.70
2019-01-24T17:42:11.461Z,17.20
2019-01-24T17:47:17.214Z,19.87
2019-01-24T17:52:23.128Z,23.63
2019-01-24T17:57:29.364Z,19.97
2019-01-24T18:02:36.569Z,28.17
2019-01-24T18:07:46.161Z,65.77
2019-01-24T18:12:53.643Z,25.90
2019-01-24T18:17:59.824Z,28.43
2019-01-24T18:23:07.913Z,21.33
2019-01-24T18:28:14.594Z,17.00
2019-01-24T18:33:20.690Z,17.20
2019-01-24T18:38:28.924Z,19.50
2019-01-24T18:43:36.507Z,17.10
2019-01-24T18:48:42.337Z,19.00
2019-01-24T18:53:51.610Z,19.30
2019-01-24T18:58:59.330Z,16.33
2019-01-24T19:04:06.652Z,44.43
2019-01-24T19:09:12.590Z,16.67
2019-01-24T19:14:21.308Z,19.77
2019-01-24T19:19:29.620Z,19.47
2019-01-24T19:24:36.660Z,18.33
2019-01-24T19:29:42.537Z,17.10
2019-01-24T19:34:48.366Z,18.93
2019-01-24T19:39:56.502Z,20.20
2019-01-24T19:45:09.353Z,23.70
2019-01-24T19:50:27.072Z,20.07
2019-01-24T19:55:32.981Z,21.07
2019-01-24T20:00:40.773Z,65.43
2019-01-24T20:05:58.620Z,19.53
2019-01-24T20:11:06.089Z,19.50
2019-01-24T20:16:13.642Z,19.90
2019-01-24T20:21:19.801Z,20.97
2019-01-24T20:26:25.972Z,20.30
2019-01-24T20:31:32.813Z,21.20
2019-01-24T20:36:47.043Z,20.43
2019-01-24T20:41:53.765Z,19.27
2019-01-24T20:47:00.597Z,21.30
2019-01-24T20:52:09.426Z,19.17
2019-01-24T20:57:17.731Z,21.43
2019-01-24T21:02:24.334Z,19.80
2019-01-24T21:07:31.395Z,18.80
2019-01-24T21:12:37.357Z,21.00
2019-01-24T21:17:43.028Z,18.77
2019-01-24T21:22:50.847Z,21.00
2019-01-24T21:27:57.789Z,20.60
2019-01-24T21:33:04.127Z,25.17
2019-01-24T21:38:10.904Z,19.90
2019-01-24T21:43:16.658Z,18.70
2019-01-24T21:48:22.643Z,18.70
2019-01-24T21:53:28.511Z,20.77
2019-01-24T21:58:34.386Z,18.20
2019-01-24T22:03:40.641Z,19.80
2019-01-24T22:08:47.693Z,19.70
2019-01-24T22:13:54.423Z,18.00
2019-01-24T22:19:00.054Z,21.37
2019-01-24T22:24:08.960Z,20.37
2019-01-24T22:29:15.491Z,21.57
2019-01-24T22:34:21.403Z,20.23
2019-01-24T22:39:29.070Z,20.20
2019-01-24T22:44:34.941Z,20.37
2019-01-24T22:49:42.614Z,19.10
2019-01-24T22:54:49.668Z,21.43
2019-01-24T22:59:58.226Z,20.10
2019-01-24T23:05:05.083Z,19.83
2019-01-24T23:10:12.078Z,21.70
2019-01-24T23:15:17.786Z,20.37
2019-01-24T23:20:23.404Z,18.53
2019-01-24T23:25:28.968Z,19.40
2019-01-24T23:30:34.989Z,20.03
2019-01-24T23:35:42.273Z,20.93
2019-01-24T23:40:47.980Z,21.07
2019-01-24T23:45:53.599Z,21.30
2019-01-24T23:51:33.543Z,19.07
2019-01-24T23:56:40.693Z,20.60
